GCLP Airport Information

Runway Information
Runway 03R Length 10171 ft width 148 ft
Elevation 69 ft Threshold ft Heading 22
Runway 21L Length 10171 ft Width 148 ft
Elevation 27 ft Threshold ft Heading 202
Runway 03L Length 10171 ft width 148 ft
Elevation 78 ft Threshold ft Heading 22
Runway 21R Length 10171 ft Width 148 ft
Elevation 33 ft Threshold ft Heading 202
Airport Frequencies
Type APP Name APP Frequency 120.9 MHZ
Type ATIS Name ATIS Frequency 118.6 MHZ
Type GND Name GND Frequency 121.7 MHZ
Type TWR Name TWR Frequency 118.3 MHZ
Airport Navaids
Type VOR-DME Name Gran Canaria Frequency 112900 KHZ
Type VOR-DME Name Gran Canaria Frequency 115000 KHZ
Type TACAN Name Gran Canaria Frequency 115600 KHZ
Type NDB Name Gran Canaria Frequency 365 KHZ
Airport Weather Information & NOTAM
ADDS - METARS form results

(0741 UTC 31 January 2023)
Data provider http://aviationweather.gov/metar/data/
 
METAR text: GCLP 310730Z 33008KT 310V010 9999 FEW035 BKN045 16/10 Q1021 NOSIG
Conditions at: GCLP (LAS PALMAS/GANDO, ES) observed 0730 UTC 31 January 2023
Temperature: 16.0°C (61°F)
Dewpoint: 10.0°C (50°F) [RH = 68%]
Pressure (altimeter): 30.15 inches Hg (1021.0 mb)
Winds: from the NNW (330 degrees) at 9 MPH (8 knots; 4.1 m/s)
Visibility: 6 or more miles (10+ km)
Ceiling: 4500 feet AGL
Clouds: few clouds at 3500 feet AGL
broken clouds at 4500 feet AGL
Weather: no significant weather observed at this time

METAR text: GCLP 310700Z 34006KT 9999 BKN045 15/10 Q1021 NOSIG
Conditions at: GCLP (LAS PALMAS/GANDO, ES) observed 0700 UTC 31 January 2023
Temperature: 15.0°C (59°F)
Dewpoint: 10.0°C (50°F) [RH = 72%]
Pressure (altimeter): 30.15 inches Hg (1021.0 mb)
Winds: from the NNW (340 degrees) at 7 MPH (6 knots; 3.1 m/s)
Visibility: 6 or more miles (10+ km)
Ceiling: 4500 feet AGL
Clouds: broken clouds at 4500 feet AGL
Weather: no significant weather observed at this time

Forecast for: GCLP (LAS PALMAS/GANDO, ES)
Text: TAF GCLP 310200Z 3103/0103 02012KT 9999 SCT035 TX20/3114Z TN14/3106Z
Forecast period: 0300 UTC 31 January 2023 to 0300 UTC 01 February 2023
Forecast type: FROM: standard forecast or significant change
Winds: from the NNE (20 degrees) at 14 MPH (12 knots; 6.2 m/s)
Visibility: 6 or more miles (10+ km)
Ceiling: at least 12,000 feet AGL
Clouds: scattered clouds at 3500 feet AGL
Weather: no significant weather forecast for this period